Météo Bibione

Heure Temps   Température Vent Humidité R. Visibilité Indice de chaleur
00:00 sereno 14°C ENE 2.9m/s (debole) 83% 80km ( buona) 14.98°C
02:00 sereno 14°C NNE 2.7m/s (debole) 84% 80km ( buona) 14.26°C
04:00 sereno 13°C NNE 2.4m/s (debole) 84% 80km ( buona) 13.45°C
06:00 sereno 14°C NNE 2.0m/s (debole) 81% 25km ( buona) 14.00°C
08:00 sereno 17°C N 1.3m/s (debole) 74% 80km ( buona) 17.25°C
10:00 sereno 18°C ENE 0.5m/s (debole) 57% 80km ( buona) 18.84°C
12:00 sereno 19°C SE 1.2m/s (debole) 53% 80km ( buona) 19.66°C
14:00 sereno 19°C SE 1.6m/s (debole) 53% 80km ( buona) 19.78°C
16:00 sereno 19°C SSE 1.6m/s (debole) 60% 80km ( buona) 19.06°C
18:00 sereno 17°C SSW 1.6m/s (debole) 70% 80km ( buona) 17.05°C
20:00 sereno 16°C SW 0.7m/s (debole) 72% 80km ( buona) 16.18°C
22:00 poco nuvoloso 15°C NNE 0m/s (debole) 74% 80km ( buona) 15.50°C
Heure Temps   Température Vent Humidité R. Visibilité Indice de chaleur
00:00 nubi sparse 15°C NNE 0m/s (debole) 74% 80km ( buona) 15.74°C
02:00 nubi sparse 15°C SE 0.8m/s (debole) 74% 80km ( buona) 15.67°C
04:00 poco nuvoloso 15°C SSE 1.0m/s (debole) 74% 80km ( buona) 15.67°C
06:00 poco nuvoloso 16°C SSE 1.1m/s (debole) 75% 80km ( buona) 16.51°C
08:00 nubi sparse 18°C S 1.3m/s (debole) 66% 80km ( buona) 18.64°C
10:00 nubi sparse 19°C S 2.0m/s (debole) 60% 80km ( buona) 19.70°C
12:00 poco nuvoloso 20°C S 3.2m/s (debole) 59% 80km ( buona) 20.49°C
14:00 poco nuvoloso 20°C S 4.3m/s (debole) 60% 80km ( buona) 20.29°C
16:00 nubi sparse 19°C SSW 4.4m/s (debole) 65% 80km ( buona) 19.25°C
18:00 nubi sparse 17°C SSW 4.0m/s (debole) 76% 80km ( buona) 17.51°C
20:00 nubi sparse 16°C S 3.4m/s (debole) 78% 79km ( buona) 16.77°C
22:00 coperto 16°C S 3.0m/s (debole) 81% 67km ( buona) 16.77°C
Heure Temps   Température Vent Humidité R. Visibilité Indice de chaleur
00:00 pioggia debole 17°C S 2.2m/s (debole) 85% 55km ( buona) 17.00°C
02:00 pioggia 17°C S 1.6m/s (debole) 87% 28km ( buona) 17.42°C
04:00 pioggia 17°C NNE 0m/s (debole) 88% 39km ( buona) 17.24°C
06:00 coperto 17°C NE 1.6m/s (debole) 87% 67km ( buona) 17.28°C
08:00 coperto 17°C NE 2.1m/s (debole) 84% 34km ( buona) 17.76°C
10:00 nubi sparse 18°C NE 2.4m/s (debole) 75% 65km ( buona) 18.87°C
12:00 poco nuvoloso 19°C NE 2.8m/s (debole) 70% 56km ( buona) 19.65°C
14:00 sereno 20°C ENE 2.1m/s (debole) 67% 80km ( buona) 20.34°C
16:00 sereno 19°C NE 1.7m/s (debole) 70% 80km ( buona) 19.88°C
18:00 nubi sparse 17°C NE 2.2m/s (debole) 80% 80km ( buona) 17.86°C
20:00 poco nuvoloso 17°C NE 2.5m/s (debole) 83% 80km ( buona) 17.40°C
22:00 sereno 16°C NE 2.8m/s (debole) 85% 80km ( buona) 16.08°C
Heure Temps   Température Vent Humidité R. Visibilité Indice de chaleur
00:00 sereno 15°C NE 3.2m/s (debole) 85% 80km ( buona) 15.11°C
02:00 sereno 14°C NE 3.5m/s (debole) 84% 80km ( buona) 14.25°C
04:00 sereno 13°C NE 3.5m/s (debole) 83% 80km ( buona) 13.55°C
06:00 sereno 13°C NE 3.3m/s (debole) 80% 80km ( buona) 13.82°C
08:00 sereno 17°C NE 2.7m/s (debole) 64% 80km ( buona) 17.71°C
10:00 sereno 19°C ENE 2.0m/s (debole) 48% 80km ( buona) 19.59°C
12:00 sereno 20°C E 1.3m/s (debole) 43% 80km ( buona) 20.30°C
14:00 sereno 20°C SE 1.1m/s (debole) 45% 80km ( buona) 20.30°C
16:00 sereno 19°C SE 0.9m/s (debole) 56% 80km ( buona) 19.49°C
18:00 sereno 17°C NNE 0m/s (debole) 66% 80km ( buona) 17.31°C
20:00 sereno 16°C NNE 1.4m/s (debole) 70% 80km ( buona) 16.38°C
22:00 sereno 15°C NNE 2.1m/s (debole) 74% 80km ( buona) 15.52°C
Heure Temps   Température Vent Humidité R. Visibilité Indice de chaleur
00:00 sereno 14°C NE 2.5m/s (debole) 77% 80km ( buona) 14.67°C
02:00 sereno 13°C NE 2.9m/s (debole) 78% 80km ( buona) 13.86°C
04:00 sereno 13°C ENE 3.1m/s (debole) 79% 80km ( buona) 13.15°C
06:00 sereno 13°C NE 2.9m/s (debole) 79% 80km ( buona) 13.32°C
08:00 sereno 17°C NE 2.5m/s (debole) 66% 80km ( buona) 17.16°C
10:00 nubi sparse 19°C NNE 1.7m/s (debole) 55% 80km ( buona) 19.21°C
12:00 nubi sparse 19°C N 1.3m/s (debole) 54% 80km ( buona) 19.95°C
14:00 nubi sparse 20°C NNW 1.5m/s (debole) 57% 80km ( buona) 20.26°C
16:00 nubi sparse 20°C N 1.3m/s (debole) 66% 80km ( buona) 20.06°C
18:00 poco nuvoloso 18°C NNE 1.7m/s (debole) 74% 80km ( buona) 18.61°C
20:00 poco nuvoloso 17°C NNE 1.9m/s (debole) 78% 80km ( buona) 17.89°C
22:00 poco nuvoloso 17°C NNE 2.2m/s (debole) 81% 80km ( buona) 17.08°C
Heure Temps   Température Vent Humidité R. Visibilité Indice de chaleur
00:00 sereno 16°C NNE 2.5m/s (debole) 84% 80km ( buona) 16.28°C
02:00 sereno 15°C NE 2.6m/s (debole) 85% 80km ( buona) 15.51°C
04:00 sereno 14°C NE 2.9m/s (debole) 86% 80km ( buona) 14.91°C
06:00 poco nuvoloso 15°C NE 2.8m/s (debole) 86% 80km ( buona) 15.41°C
08:00 poco nuvoloso 18°C NE 2.8m/s (debole) 72% 80km ( buona) 18.99°C
10:00 poco nuvoloso 20°C NE 2.3m/s (debole) 59% 80km ( buona) 20.82°C
12:00 poco nuvoloso 21°C NE 1.4m/s (debole) 54% 80km ( buona) 21.97°C
14:00 sereno 22°C NNE 0.9m/s (debole) 53% 80km ( buona) 22.34°C
16:00 sereno 21°C NNE 0.9m/s (debole) 61% 80km ( buona) 21.83°C
18:00 sereno 19°C N 1.5m/s (debole) 75% 80km ( buona) 19.20°C
20:00 sereno 18°C NNE 2.2m/s (debole) 80% 80km ( buona) 18.06°C
22:00 sereno 17°C NNE 2.5m/s (debole) 84% 80km ( buona) 17.01°C
Heure Temps   Température Vent Humidité R. Visibilité Indice de chaleur
00:00 sereno 16°C NNE 2.7m/s (debole) 86% 80km ( buona) 16.11°C
02:00 sereno 15°C NE 2.7m/s (debole) 87% 80km ( buona) 15.32°C
04:00 sereno 14°C NE 2.6m/s (debole) 86% 80km ( buona) 14.59°C
06:00 sereno 14°C NE 2.3m/s (debole) 86% 80km ( buona) 14.78°C
08:00 sereno 18°C NE 1.8m/s (debole) 74% 80km ( buona) 18.50°C
10:00 sereno 20°C ENE 1.0m/s (debole) 59% 80km ( buona) 20.83°C
12:00 sereno 22°C SE 0.5m/s (debole) 54% 80km ( buona) 22.01°C
14:00 sereno 22°C SSE 0.8m/s (debole) 56% 80km ( buona) 22.23°C
16:00 sereno 21°C S 1.1m/s (debole) 70% 80km ( buona) 21.14°C
18:00 sereno 18°C S 0.9m/s (debole) 80% 80km ( buona) 18.65°C
20:00 sereno 17°C NNE 0m/s (debole) 84% 80km ( buona) 17.59°C
22:00 sereno 16°C WNW 0.8m/s (debole) 86% 27km ( buona) 16.80°C
Powered by Il Meteo